KGOK

Guthrie-Edmond Regional Airport

Guthrie, Oklahoma, USA
METAR KGOK 170953Z AUTO 19003KT 10SM CLR M16/M18 A3071 RMK AO2 SLP421 T11561178
Observed Flight Rules
Jan-17 @ 09:53 UTC (39 minutes ago) Visual Flight Rules
Wind Visibility Clouds
190° at 3 knots 10 miles
  • Clear skies
Temperatures Readings
Current -16°C / 3°F
Dewpoint -18°C / -0°F
Humidity 85%
Altimeter 30.71" Hg
Pressure 1042.1 hPa
Elevation 324
METAR KGOK 170953Z AUTO 19003KT 10SM CLR M16/M18 A3071 RMK AO2 SLP421 T11561178
Observed Flight Rules
Jan-17 @ 09:53 UTC
(39 minutes ago)
VFR
Wind Visibility
190° at 3 knots 10 miles
Clouds
  • Clear skies
Temperature Dewpoint
-16°C / 3°F -18°C / -0°F
Humidity Altimeter Pressure
85% 30.71" Hg 1042.1 hPa